createdAt,value
2022-08-22T00:00:14.754Z,2.88
2022-08-22T00:03:03.385Z,2.50
2022-08-22T00:03:18.512Z,3.13
2022-08-22T00:06:08.113Z,2.80
2022-08-22T00:08:58.009Z,3.08
2022-08-22T00:11:50.100Z,3.10
2022-08-22T00:14:45.969Z,2.90
2022-08-22T00:17:31.617Z,2.92
2022-08-22T00:20:15.777Z,2.80
2022-08-22T00:23:13.720Z,3.00
2022-08-22T00:25:51.374Z,3.00
2022-08-22T00:28:34.076Z,2.88
2022-08-22T00:31:24.934Z,2.90
2022-08-22T00:34:13.047Z,3.00
2022-08-22T00:36:52.227Z,3.40
2022-08-22T00:39:38.832Z,3.40
2022-08-22T00:42:33.708Z,3.33
2022-08-22T00:45:06.782Z,3.20
2022-08-22T00:47:42.593Z,2.90
2022-08-22T00:50:31.372Z,3.08
2022-08-22T00:53:36.181Z,3.40
2022-08-22T00:56:27.716Z,3.50
2022-08-22T00:59:26.912Z,3.25
2022-08-22T01:02:28.105Z,3.00
2022-08-22T01:05:18.372Z,3.10
2022-08-22T01:07:56.618Z,2.90
2022-08-22T01:11:07.641Z,3.30
2022-08-22T01:14:04.789Z,3.00
2022-08-22T01:16:54.947Z,3.70
2022-08-22T01:19:33.780Z,2.97
2022-08-22T01:22:48.294Z,3.10
2022-08-22T01:25:56.789Z,3.20
2022-08-22T01:28:51.508Z,3.17
2022-08-22T01:31:47.916Z,3.10
2022-08-22T01:34:52.525Z,3.00
2022-08-22T01:37:43.619Z,3.05
2022-08-22T01:40:13.598Z,2.85
2022-08-22T01:43:16.990Z,3.00
2022-08-22T01:45:49.533Z,2.57
2022-08-22T01:48:34.605Z,2.95
2022-08-22T01:51:19.952Z,2.72
2022-08-22T01:54:04.708Z,3.40
2022-08-22T01:56:41.518Z,3.30
2022-08-22T01:59:13.903Z,3.20
2022-08-22T02:01:46.071Z,3.97
2022-08-22T02:04:28.757Z,3.65
2022-08-22T02:07:32.109Z,3.72
2022-08-22T02:10:41.080Z,3.88
2022-08-22T02:13:13.752Z,3.67
2022-08-22T02:15:40.443Z,3.30
2022-08-22T02:18:07.155Z,3.40
2022-08-22T02:21:03.358Z,3.63
2022-08-22T02:24:01.344Z,3.13
2022-08-22T02:26:50.102Z,3.20
2022-08-22T02:29:29.496Z,3.45
2022-08-22T02:32:08.390Z,2.80
2022-08-22T02:35:07.188Z,2.97
2022-08-22T02:37:33.886Z,2.97
2022-08-22T02:40:34.572Z,2.57
2022-08-22T02:43:07.699Z,2.78
2022-08-22T02:45:48.269Z,2.65
2022-08-22T02:48:30.024Z,2.60
2022-08-22T02:51:09.415Z,2.80
2022-08-22T02:53:49.769Z,2.63
2022-08-22T02:56:35.749Z,2.65
2022-08-22T02:59:30.385Z,2.55
2022-08-22T03:01:58.133Z,2.55
2022-08-22T03:04:47.864Z,2.75
2022-08-22T03:07:20.599Z,2.57
2022-08-22T03:10:10.401Z,2.40
2022-08-22T03:13:17.233Z,2.40
2022-08-22T03:15:59.761Z,2.70
2022-08-22T03:18:31.313Z,2.63
2022-08-22T03:21:35.450Z,2.40
2022-08-22T03:24:31.536Z,2.65
2022-08-22T03:27:02.549Z,2.58
2022-08-22T03:29:40.503Z,2.60
2022-08-22T03:32:09.758Z,2.50
2022-08-22T03:34:37.453Z,2.50
2022-08-22T03:37:21.193Z,2.85
2022-08-22T03:39:50.997Z,2.28
2022-08-22T03:43:00.127Z,2.55
2022-08-22T03:45:49.423Z,2.60
2022-08-22T03:48:31.241Z,2.90
2022-08-22T03:51:29.890Z,3.00
2022-08-22T03:54:17.924Z,2.80
2022-08-22T03:57:00.599Z,3.28
2022-08-22T03:59:42.702Z,2.90
2022-08-22T04:02:42.929Z,2.70
2022-08-22T04:05:38.321Z,3.10
2022-08-22T04:08:37.547Z,2.55
2022-08-22T04:11:32.621Z,3.00
2022-08-22T04:14:26.979Z,3.00
2022-08-22T04:17:06.324Z,3.40
2022-08-22T04:19:51.071Z,2.60
2022-08-22T04:22:53.329Z,2.80
2022-08-22T04:25:25.596Z,3.22
2022-08-22T04:28:05.604Z,3.17
2022-08-22T04:30:40.027Z,3.20
2022-08-22T04:33:12.376Z,2.92
2022-08-22T04:35:45.401Z,2.97
2022-08-22T04:38:33.189Z,3.10
2022-08-22T04:41:12.282Z,2.95
2022-08-22T04:43:54.716Z,3.10
2022-08-22T04:46:57.410Z,2.83
2022-08-22T04:49:31.717Z,3.22
2022-08-22T04:52:01.406Z,2.65
2022-08-22T04:55:00.589Z,2.80
2022-08-22T04:58:18.800Z,2.83
2022-08-22T05:01:09.256Z,3.25
2022-08-22T05:04:06.650Z,2.53
2022-08-22T05:06:38.705Z,3.00
2022-08-22T05:09:16.069Z,2.85
2022-08-22T05:11:45.829Z,2.80
2022-08-22T05:14:36.655Z,3.30
2022-08-22T05:17:07.437Z,2.85
2022-08-22T05:19:38.381Z,3.30
2022-08-22T05:22:13.569Z,3.25
2022-08-22T05:24:44.149Z,3.60
2022-08-22T05:27:24.065Z,3.28
2022-08-22T05:29:54.716Z,3.72
2022-08-22T05:32:30.899Z,4.00
2022-08-22T05:35:03.567Z,3.63
2022-08-22T05:37:39.098Z,3.73
2022-08-22T05:40:07.375Z,3.95
2022-08-22T05:42:37.588Z,4.05
2022-08-22T05:45:11.564Z,3.95
2022-08-22T05:47:44.935Z,4.25
2022-08-22T05:50:28.009Z,4.73
2022-08-22T05:53:21.569Z,4.70
2022-08-22T05:55:48.633Z,4.40
2022-08-22T05:59:00.360Z,4.53
2022-08-22T06:01:38.735Z,4.38
2022-08-22T06:04:21.820Z,4.57
2022-08-22T06:07:22.144Z,4.35
2022-08-22T06:09:48.825Z,4.20
2022-08-22T06:12:22.199Z,4.20
2022-08-22T06:15:11.886Z,4.13
2022-08-22T06:17:47.144Z,3.67
2022-08-22T06:20:25.771Z,3.72
2022-08-22T06:23:00.325Z,3.42
2022-08-22T06:25:37.621Z,3.72
2022-08-22T06:28:09.238Z,3.38
2022-08-22T06:30:39.538Z,3.37
2022-08-22T06:33:13.580Z,3.53
2022-08-22T06:36:07.947Z,3.58
2022-08-22T06:39:03.973Z,3.90
2022-08-22T06:41:33.880Z,4.13
2022-08-22T06:44:03.806Z,3.80
2022-08-22T06:46:34.265Z,3.70
2022-08-22T06:49:03.001Z,4.15
2022-08-22T06:51:30.511Z,4.07
2022-08-22T06:54:01.751Z,3.28
2022-08-22T06:56:38.715Z,4.10
2022-08-22T06:59:12.613Z,4.13
2022-08-22T07:02:03.668Z,3.90
2022-08-22T07:04:31.228Z,4.20
2022-08-22T07:07:01.419Z,4.50
2022-08-22T07:09:34.704Z,3.87
2022-08-22T07:12:10.265Z,3.92
2022-08-22T07:14:43.257Z,3.60
2022-08-22T07:17:26.461Z,3.50
2022-08-22T07:20:04.879Z,3.40
2022-08-22T07:22:35.718Z,2.83
2022-08-22T07:25:21.317Z,3.25
2022-08-22T07:28:19.529Z,3.20
2022-08-22T07:30:59.319Z,3.30
2022-08-22T07:33:42.374Z,3.53
2022-08-22T07:36:33.981Z,3.37
2022-08-22T07:39:17.702Z,3.58
2022-08-22T07:41:59.554Z,3.20
2022-08-22T07:44:38.525Z,3.50
2022-08-22T07:47:15.555Z,3.40
2022-08-22T07:49:54.173Z,3.67
2022-08-22T07:52:23.146Z,3.50
2022-08-22T07:55:01.768Z,3.58
2022-08-22T07:57:36.204Z,3.50
2022-08-22T08:00:11.241Z,3.65
2022-08-22T08:02:46.510Z,3.40
2022-08-22T08:05:14.401Z,3.45
2022-08-22T08:07:45.370Z,3.55
2022-08-22T08:10:21.488Z,3.90
2022-08-22T08:13:02.574Z,3.45
2022-08-22T08:15:34.286Z,3.00
2022-08-22T08:18:06.242Z,3.17
2022-08-22T08:20:36.454Z,3.88
2022-08-22T08:23:09.952Z,3.63
2022-08-22T08:26:08.805Z,4.00
2022-08-22T08:28:42.936Z,3.53
2022-08-22T08:31:32.650Z,3.65
2022-08-22T08:34:11.666Z,3.72
2022-08-22T08:36:59.709Z,3.80
2022-08-22T08:39:50.590Z,4.05
2022-08-22T08:42:32.581Z,3.97
2022-08-22T08:45:33.272Z,4.00
2022-08-22T08:48:27.189Z,3.90
2022-08-22T08:50:56.969Z,4.03
2022-08-22T08:53:49.457Z,4.07
2022-08-22T08:56:36.085Z,3.33
2022-08-22T08:59:24.001Z,3.88
2022-08-22T09:05:34.104Z,3.13
2022-08-22T09:08:38.989Z,2.88
2022-08-22T09:11:18.762Z,3.50
2022-08-22T09:14:00.083Z,2.80
2022-08-22T09:17:00.697Z,3.03
2022-08-22T09:19:42.586Z,2.70
2022-08-22T09:22:33.458Z,2.88
2022-08-22T09:25:39.188Z,2.43
2022-08-22T09:28:16.670Z,2.72
2022-08-22T09:31:16.935Z,3.13
2022-08-22T09:34:23.883Z,2.92
2022-08-22T09:37:21.605Z,2.42
2022-08-22T09:40:17.330Z,2.80
2022-08-22T09:42:59.889Z,2.65
2022-08-22T09:45:55.130Z,2.40
2022-08-22T09:48:41.631Z,2.60
2022-08-22T09:51:32.432Z,2.40
2022-08-22T09:54:14.446Z,2.40
2022-08-22T09:57:00.910Z,2.67
2022-08-22T09:59:42.605Z,2.80
2022-08-22T10:02:44.329Z,2.10
2022-08-22T10:05:40.572Z,2.50
2022-08-22T10:08:46.240Z,2.23
2022-08-22T10:11:31.893Z,2.25
2022-08-22T10:14:02.269Z,2.50
2022-08-22T10:17:07.189Z,2.50
2022-08-22T10:19:45.712Z,2.20
2022-08-22T10:22:31.391Z,2.30
2022-08-22T10:24:58.649Z,2.65
2022-08-22T10:27:46.649Z,2.30
2022-08-22T10:30:19.619Z,2.17
2022-08-22T10:33:01.680Z,2.30
2022-08-22T10:35:44.053Z,2.33
2022-08-22T10:38:29.055Z,2.20
2022-08-22T10:41:27.135Z,2.22
2022-08-22T10:44:01.503Z,2.38
2022-08-22T10:46:56.044Z,2.28
2022-08-22T10:49:37.489Z,2.40
2022-08-22T10:52:20.361Z,2.50
2022-08-22T10:54:52.514Z,2.42
2022-08-22T10:57:36.368Z,2.50
2022-08-22T11:00:27.028Z,2.22
2022-08-22T11:03:42.433Z,2.50
2022-08-22T11:06:24.151Z,2.42
2022-08-22T11:09:07.102Z,2.40
2022-08-22T11:11:42.584Z,2.63
2022-08-22T11:14:50.502Z,3.03
2022-08-22T11:17:39.751Z,2.73
2022-08-22T11:20:48.496Z,2.60
2022-08-22T11:23:24.322Z,2.67
2022-08-22T11:26:13.403Z,2.60
2022-08-22T11:29:14.207Z,2.78
2022-08-22T11:32:19.062Z,2.70
2022-08-22T11:35:13.808Z,2.80
2022-08-22T11:38:04.011Z,2.58
2022-08-22T11:41:08.096Z,3.25
2022-08-22T11:43:40.716Z,3.22
2022-08-22T11:46:20.045Z,3.13
2022-08-22T11:49:01.245Z,2.67
2022-08-22T11:51:52.725Z,3.58
2022-08-22T11:54:42.289Z,3.60
2022-08-22T11:57:20.412Z,3.30
2022-08-22T11:59:53.481Z,2.60
2022-08-22T12:03:02.075Z,2.95
2022-08-22T12:05:39.817Z,3.00
2022-08-22T12:08:13.527Z,2.90
2022-08-22T12:11:05.831Z,2.80
2022-08-22T12:13:51.071Z,2.80
2022-08-22T12:17:07.356Z,3.40
2022-08-22T12:20:14.618Z,3.50
2022-08-22T12:22:49.863Z,3.15
2022-08-22T12:25:52.847Z,2.67
2022-08-22T12:28:52.644Z,3.07
2022-08-22T12:31:50.145Z,3.13
2022-08-22T12:34:31.952Z,2.80
2022-08-22T12:37:06.539Z,2.63
2022-08-22T12:40:00.252Z,2.85
2022-08-22T12:42:46.799Z,2.53
2022-08-22T12:45:33.769Z,2.90
2022-08-22T12:48:57.956Z,2.70
2022-08-22T12:52:09.133Z,3.05
2022-08-22T12:55:04.686Z,3.10
2022-08-22T12:57:41.724Z,3.00
2022-08-22T13:00:22.958Z,2.85
2022-08-22T13:02:53.832Z,2.70
2022-08-22T13:05:38.362Z,2.97
2022-08-22T13:08:13.972Z,2.40
2022-08-22T13:10:58.212Z,2.23
2022-08-22T13:13:39.047Z,2.53
2022-08-22T13:16:17.557Z,2.33
2022-08-22T13:18:53.644Z,2.45
2022-08-22T13:21:26.245Z,2.70
2022-08-22T13:24:11.168Z,3.67
2022-08-22T13:26:52.523Z,2.83
2022-08-22T13:29:39.631Z,2.85
2022-08-22T13:32:18.923Z,2.80
2022-08-22T13:34:53.884Z,2.33
2022-08-22T13:37:44.252Z,2.77
2022-08-22T13:40:21.393Z,2.45
2022-08-22T13:42:54.155Z,2.97
2022-08-22T13:45:32.491Z,3.03
2022-08-22T13:48:03.547Z,2.50
2022-08-22T13:50:37.127Z,2.60
2022-08-22T13:53:31.996Z,2.40
2022-08-22T13:56:20.992Z,2.65
2022-08-22T13:58:57.997Z,2.30
2022-08-22T14:01:57.502Z,2.50
2022-08-22T14:04:36.244Z,2.37
2022-08-22T14:07:06.127Z,2.55
2022-08-22T14:09:59.975Z,2.50
2022-08-22T14:12:49.955Z,2.40
2022-08-22T14:15:23.582Z,2.60
2022-08-22T14:17:55.920Z,2.57
2022-08-22T14:20:32.238Z,2.63
2022-08-22T14:23:29.302Z,2.60
2022-08-22T14:25:57.387Z,2.58
2022-08-22T14:28:27.866Z,2.63
2022-08-22T14:31:04.151Z,2.40
2022-08-22T14:33:36.480Z,2.60
2022-08-22T14:36:17.896Z,2.50
2022-08-22T14:39:11.331Z,2.72
2022-08-22T14:41:52.854Z,3.00
2022-08-22T14:44:59.420Z,2.87
2022-08-22T14:47:55.069Z,2.40
2022-08-22T14:50:40.148Z,2.58
2022-08-22T14:53:22.260Z,2.40
2022-08-22T14:56:08.900Z,2.70
2022-08-22T14:59:02.825Z,2.67
2022-08-22T15:01:32.817Z,2.30
2022-08-22T15:04:04.917Z,2.42
2022-08-22T15:06:55.161Z,2.50
2022-08-22T15:09:24.849Z,2.42
2022-08-22T15:11:53.109Z,2.63
2022-08-22T15:14:28.073Z,2.83
2022-08-22T15:16:59.004Z,2.58
2022-08-22T15:19:25.663Z,2.92
2022-08-22T15:22:20.383Z,2.85
2022-08-22T15:24:56.304Z,2.77
2022-08-22T15:27:25.404Z,3.50
2022-08-22T15:29:59.514Z,3.30
2022-08-22T15:32:29.738Z,3.10
2022-08-22T15:35:05.868Z,3.78
2022-08-22T15:37:52.509Z,3.40
2022-08-22T15:40:33.865Z,3.30
2022-08-22T15:43:13.349Z,3.20
2022-08-22T15:45:42.778Z,3.60
2022-08-22T15:48:33.975Z,3.90
2022-08-22T15:51:10.228Z,3.73
2022-08-22T15:54:25.571Z,3.90
2022-08-22T15:56:52.806Z,3.70
2022-08-22T15:59:52.594Z,4.10
2022-08-22T16:02:55.765Z,3.92
2022-08-22T16:05:36.634Z,3.73
2022-08-22T16:08:18.164Z,3.85
2022-08-22T16:10:56.094Z,4.70
2022-08-22T16:13:29.540Z,3.63
2022-08-22T16:16:10.253Z,4.80
2022-08-22T16:18:39.800Z,4.00
2022-08-22T16:21:16.673Z,4.78
2022-08-22T16:23:46.457Z,5.07
2022-08-22T16:26:24.635Z,4.60
2022-08-22T16:28:59.039Z,5.55
2022-08-22T16:31:34.192Z,5.43
2022-08-22T16:34:19.020Z,4.40
2022-08-22T16:36:54.894Z,4.97
2022-08-22T16:39:21.529Z,5.13
2022-08-22T16:41:51.440Z,4.93
2022-08-22T16:44:30.321Z,3.80
2022-08-22T16:47:13.784Z,4.07
2022-08-22T16:49:49.616Z,4.10
2022-08-22T16:52:25.267Z,3.53
2022-08-22T16:55:01.173Z,3.97
2022-08-22T16:57:27.961Z,3.50
2022-08-22T17:00:22.958Z,3.28
2022-08-22T17:03:14.416Z,3.60
2022-08-22T17:05:54.748Z,3.00
2022-08-22T17:09:09.571Z,3.40
2022-08-22T17:11:54.827Z,2.73
2022-08-22T17:14:52.558Z,2.83
2022-08-22T17:17:57.045Z,3.13
2022-08-22T17:20:45.292Z,2.88
2022-08-22T17:23:11.992Z,3.20
2022-08-22T17:26:16.060Z,3.07
2022-08-22T17:29:09.361Z,2.58
2022-08-22T17:31:52.694Z,2.88
2022-08-22T17:34:33.575Z,3.05
2022-08-22T17:37:26.122Z,2.80
2022-08-22T17:40:20.366Z,2.90
2022-08-22T17:43:27.415Z,2.83
2022-08-22T17:46:21.214Z,3.00
2022-08-22T17:49:03.764Z,2.85
2022-08-22T17:51:33.172Z,3.28
2022-08-22T17:54:24.237Z,3.00
2022-08-22T17:57:11.947Z,2.83
2022-08-22T17:59:59.670Z,3.03
2022-08-22T18:02:39.220Z,3.17
2022-08-22T18:05:10.676Z,3.25
2022-08-22T18:08:03.198Z,2.90
2022-08-22T18:10:52.063Z,3.00
2022-08-22T18:13:56.584Z,3.35
2022-08-22T18:16:46.316Z,2.92
2022-08-22T18:19:42.654Z,2.90
2022-08-22T18:22:22.145Z,3.30
2022-08-22T18:25:13.129Z,3.17
2022-08-22T18:27:58.706Z,2.95
2022-08-22T18:30:50.601Z,2.95
2022-08-22T18:33:32.991Z,2.90
2022-08-22T18:36:09.022Z,3.00
2022-08-22T18:39:03.637Z,3.20
2022-08-22T18:41:57.748Z,2.90
2022-08-22T18:44:28.624Z,3.17
2022-08-22T18:47:20.555Z,2.80
2022-08-22T18:49:54.252Z,3.10
2022-08-22T18:52:27.282Z,3.40
2022-08-22T18:55:02.925Z,3.47
2022-08-22T18:57:57.899Z,3.78
2022-08-22T19:00:47.980Z,3.50
2022-08-22T19:03:51.449Z,3.30
2022-08-22T19:06:52.055Z,2.92
2022-08-22T19:09:49.773Z,2.80
2022-08-22T19:12:50.053Z,2.90
2022-08-22T19:15:59.437Z,3.10
2022-08-22T19:18:36.213Z,3.20
2022-08-22T19:21:43.911Z,3.40
2022-08-22T19:24:19.866Z,3.40
2022-08-22T19:27:08.529Z,3.42
2022-08-22T19:29:35.913Z,3.50
2022-08-22T19:32:05.918Z,3.33
2022-08-22T19:34:47.153Z,3.55
2022-08-22T19:37:32.574Z,3.60
2022-08-22T19:40:10.215Z,4.00
2022-08-22T19:42:40.358Z,3.65
2022-08-22T19:45:27.131Z,3.70
2022-08-22T19:48:14.583Z,3.63
2022-08-22T19:50:43.026Z,3.92
2022-08-22T19:53:51.169Z,3.85
2022-08-22T19:56:39.613Z,4.20
2022-08-22T19:59:20.357Z,3.50
2022-08-22T20:01:57.221Z,3.60
2022-08-22T20:04:42.694Z,3.58
2022-08-22T20:07:48.540Z,3.40
2022-08-22T20:11:02.893Z,3.83
2022-08-22T20:13:35.444Z,3.60
2022-08-22T20:16:22.234Z,4.50
2022-08-22T20:19:03.548Z,4.10
2022-08-22T20:22:13.609Z,4.30
2022-08-22T20:25:41.399Z,4.80
2022-08-22T20:28:03.046Z,4.50
2022-08-22T20:30:43.429Z,4.20
2022-08-22T20:33:23.393Z,4.80
2022-08-22T20:36:29.467Z,4.50
2022-08-22T20:39:08.161Z,5.10
2022-08-22T20:41:41.079Z,4.60
2022-08-22T20:44:20.515Z,4.47
2022-08-22T20:46:55.201Z,4.10
2022-08-22T20:49:35.936Z,3.97
2022-08-22T20:52:08.896Z,4.68
2022-08-22T20:54:38.887Z,4.20
2022-08-22T20:57:16.132Z,4.28
2022-08-22T20:59:58.721Z,3.63
2022-08-22T21:02:30.150Z,4.28
2022-08-22T21:05:04.257Z,4.60
2022-08-22T21:07:35.477Z,4.30
2022-08-22T21:10:42.444Z,4.60
2022-08-22T21:13:16.565Z,4.82
2022-08-22T21:15:52.969Z,5.00
2022-08-22T21:18:39.285Z,4.82
2022-08-22T21:21:20.517Z,4.40
2022-08-22T21:23:55.502Z,4.70
2022-08-22T21:26:32.674Z,4.35
2022-08-22T21:29:08.206Z,4.63
2022-08-22T21:31:48.657Z,4.45
2022-08-22T21:34:24.450Z,4.77
2022-08-22T21:36:53.634Z,5.25
2022-08-22T21:39:36.880Z,4.70
2022-08-22T21:42:03.599Z,4.50
2022-08-22T21:44:39.403Z,5.18
2022-08-22T21:47:31.152Z,4.90
2022-08-22T21:50:23.108Z,5.30
2022-08-22T21:52:55.862Z,5.88
2022-08-22T21:55:34.467Z,5.97
2022-08-22T21:58:36.114Z,5.90
2022-08-22T22:01:27.642Z,5.40
2022-08-22T22:03:55.001Z,5.38
2022-08-22T22:06:21.755Z,5.50
2022-08-22T22:08:48.974Z,5.28
2022-08-22T22:11:16.326Z,5.00
2022-08-22T22:13:43.543Z,5.10
2022-08-22T22:16:14.342Z,5.18
2022-08-22T22:18:41.189Z,5.25
2022-08-22T22:21:09.234Z,5.10
2022-08-22T22:23:35.943Z,5.28
2022-08-22T22:26:04.959Z,5.17
2022-08-22T22:28:41.018Z,5.50
2022-08-22T22:31:08.185Z,5.40
2022-08-22T22:33:38.236Z,5.45
2022-08-22T22:36:08.944Z,5.10
2022-08-22T22:38:36.835Z,5.17
2022-08-22T22:41:03.618Z,5.70
2022-08-22T22:43:30.646Z,5.15
2022-08-22T22:45:58.957Z,5.00
2022-08-22T22:48:25.878Z,4.82
2022-08-22T22:50:54.025Z,5.07
2022-08-22T22:53:38.273Z,5.00
2022-08-22T22:56:07.395Z,5.10
2022-08-22T22:58:36.848Z,5.55
2022-08-22T23:01:14.040Z,5.55
2022-08-22T23:03:41.044Z,5.30
2022-08-22T23:06:13.150Z,4.97
2022-08-22T23:08:40.318Z,5.13
2022-08-22T23:11:24.944Z,5.25
2022-08-22T23:13:52.231Z,5.18
2022-08-22T23:16:22.401Z,5.30
2022-08-22T23:18:49.964Z,5.50
2022-08-22T23:21:25.385Z,5.18
2022-08-22T23:23:54.826Z,5.60
2022-08-22T23:26:21.518Z,5.15
2022-08-22T23:28:48.636Z,5.73
2022-08-22T23:31:16.861Z,5.57
2022-08-22T23:33:44.648Z,6.13
2022-08-22T23:36:14.808Z,5.85
2022-08-22T23:38:41.813Z,5.78
2022-08-22T23:41:10.226Z,6.23
2022-08-22T23:43:40.804Z,5.80
2022-08-22T23:46:07.501Z,6.57
2022-08-22T23:48:34.268Z,6.20
2022-08-22T23:51:00.976Z,6.60
2022-08-22T23:53:29.003Z,5.63
2022-08-22T23:55:55.922Z,5.95
2022-08-22T23:58:23.341Z,6.53
